Time;durP1;ratioP1;P1;durP2;ratioP2;P2;SDS_P1;SDS_P2;PMS_P1;PMS_P2;Temp;Humidity;BMP_temperature;BMP_pressure;BME280_temperature;BME280_humidity;BME280_pressure;Samples;Min_cycle;Max_cycle;Signal;HPM_P1;HPM_P2
2023/12/09 00:00:45;;;;;;;34.17;15.27;;;;;;;;;;5050815;28;20231;-76
2023/12/09 00:03:12;;;;;;;33.83;14.93;;;;;;;;;;5051341;28;20208;-77
2023/12/09 00:05:39;;;;;;;33.97;16.03;;;;;;;;;;5050870;28;20233;-77
2023/12/09 00:08:06;;;;;;;31.23;15.87;;;;;;;;;;5052031;28;20636;-76
2023/12/09 00:10:35;;;;;;;28.30;15.07;;;;;;;;;;5047453;28;20241;-76
2023/12/09 00:13:02;;;;;;;33.07;16.53;;;;;;;;;;5043891;28;20549;-76
2023/12/09 00:15:29;;;;;;;34.70;17.13;;;;;;;;;;5038503;28;20244;-78
2023/12/09 00:17:56;;;;;;;33.33;15.07;;;;;;;;;;5054838;28;20221;-78
2023/12/09 00:20:23;;;;;;;30.97;15.70;;;;;;;;;;5054191;28;20582;-78
2023/12/09 00:22:50;;;;;;;29.03;15.77;;;;;;;;;;5054644;28;20212;-77
2023/12/09 00:25:17;;;;;;;35.70;15.93;;;;;;;;;;5054149;28;20240;-78
2023/12/09 00:27:46;;;;;;;39.27;17.67;;;;;;;;;;5054492;28;20231;-77
2023/12/09 00:30:13;;;;;;;27.77;16.60;;;;;;;;;;5054112;28;20210;-78
2023/12/09 00:32:40;;;;;;;30.63;15.37;;;;;;;;;;5054577;28;20730;-77
2023/12/09 00:35:07;;;;;;;35.10;16.47;;;;;;;;;;5053968;28;20212;-78
2023/12/09 00:37:35;;;;;;;31.43;14.73;;;;;;;;;;5054367;28;20277;-77
2023/12/09 00:40:02;;;;;;;31.67;15.43;;;;;;;;;;5049564;28;20197;-82
2023/12/09 00:42:29;;;;;;;32.27;16.17;;;;;;;;;;5054752;28;20286;-77
2023/12/09 00:44:57;;;;;;;39.00;18.33;;;;;;;;;;5054308;28;20211;-77
2023/12/09 00:47:24;;;;;;;36.03;16.40;;;;;;;;;;5036014;28;20241;-77
2023/12/09 00:49:51;;;;;;;35.73;15.50;;;;;;;;;;5035061;28;20239;-77
2023/12/09 00:52:18;;;;;;;31.80;16.47;;;;;;;;;;5052006;28;20235;-77
2023/12/09 00:54:45;;;;;;;33.67;15.27;;;;;;;;;;5054138;28;20242;-77
2023/12/09 00:57:12;;;;;;;29.90;16.63;;;;;;;;;;5053678;28;20308;-77
2023/12/09 00:59:39;;;;;;;35.53;17.63;;;;;;;;;;5054022;28;20307;-77
2023/12/09 01:02:08;;;;;;;33.07;16.40;;;;;;;;;;5039220;28;20235;-77
2023/12/09 01:04:35;;;;;;;33.30;16.03;;;;;;;;;;5048696;28;20209;-77
2023/12/09 01:07:02;;;;;;;41.00;16.07;;;;;;;;;;5053152;28;20236;-77
2023/12/09 01:09:29;;;;;;;38.87;16.97;;;;;;;;;;5037542;28;20292;-77
2023/12/09 01:11:56;;;;;;;29.67;14.97;;;;;;;;;;5048708;28;20287;-77
2023/12/09 01:14:23;;;;;;;42.50;16.67;;;;;;;;;;5053979;28;20578;-77
2023/12/09 01:16:50;;;;;;;29.00;15.83;;;;;;;;;;5053212;28;20236;-77
2023/12/09 01:19:18;;;;;;;30.17;15.23;;;;;;;;;;5053738;28;20213;-77
2023/12/09 01:21:45;;;;;;;28.97;15.47;;;;;;;;;;5052451;28;20233;-77
2023/12/09 01:24:12;;;;;;;31.93;14.37;;;;;;;;;;5043530;28;20632;-77
2023/12/09 01:26:39;;;;;;;41.00;16.67;;;;;;;;;;5053213;28;20654;-78
2023/12/09 01:29:06;;;;;;;30.03;15.93;;;;;;;;;;5053590;28;20247;-78
2023/12/09 01:31:33;;;;;;;30.20;15.70;;;;;;;;;;5052894;28;20236;-78
2023/12/09 01:34:00;;;;;;;28.70;15.50;;;;;;;;;;5053505;28;20218;-78
2023/12/09 01:36:29;;;;;;;32.07;14.73;;;;;;;;;;5052568;28;20236;-78
2023/12/09 01:38:56;;;;;;;28.70;13.87;;;;;;;;;;5053432;28;20247;-77
2023/12/09 01:41:23;;;;;;;27.37;13.60;;;;;;;;;;5052560;28;20777;-78
2023/12/09 01:43:50;;;;;;;30.37;14.73;;;;;;;;;;5053106;28;20202;-77
2023/12/09 01:46:18;;;;;;;30.67;14.50;;;;;;;;;;5050921;28;20236;-78
2023/12/09 01:48:46;;;;;;;31.93;14.87;;;;;;;;;;5053239;28;20213;-78
2023/12/09 01:51:14;;;;;;;30.30;13.93;;;;;;;;;;5050319;28;20364;-78
2023/12/09 01:53:42;;;;;;;26.87;13.80;;;;;;;;;;5051558;28;20304;-77
2023/12/09 01:56:11;;;;;;;33.10;13.97;;;;;;;;;;5052445;28;20259;-77
2023/12/09 01:58:38;;;;;;;32.87;14.07;;;;;;;;;;5048260;28;20198;-77
2023/12/09 02:01:05;;;;;;;22.67;14.13;;;;;;;;;;5041128;28;20286;-77
2023/12/09 02:03:32;;;;;;;35.70;14.73;;;;;;;;;;5050629;28;20212;-77
2023/12/09 02:06:00;;;;;;;31.33;13.17;;;;;;;;;;5051632;28;20231;-77
2023/12/09 02:08:27;;;;;;;38.40;13.97;;;;;;;;;;5050956;28;20228;-77
2023/12/09 02:10:59;;;;;;;29.43;13.43;;;;;;;;;;5044822;28;20288;-77
2023/12/09 02:13:30;;;;;;;32.20;13.43;;;;;;;;;;5052788;28;20214;-77
2023/12/09 02:15:59;;;;;;;30.60;15.10;;;;;;;;;;5052319;28;20236;-77
2023/12/09 02:18:26;;;;;;;30.63;13.53;;;;;;;;;;5052790;28;20207;-77
2023/12/09 02:20:53;;;;;;;35.97;16.07;;;;;;;;;;5051937;28;20620;-76
2023/12/09 02:23:22;;;;;;;28.97;14.50;;;;;;;;;;5052779;28;20299;-77
2023/12/09 02:25:50;;;;;;;34.53;14.30;;;;;;;;;;5051921;28;20267;-77
2023/12/09 02:28:19;;;;;;;30.47;12.90;;;;;;;;;;5043613;28;20284;-76
2023/12/09 02:30:50;;;;;;;31.13;14.20;;;;;;;;;;5051346;28;20287;-77
2023/12/09 02:33:18;;;;;;;26.93;13.67;;;;;;;;;;5052088;28;20208;-77
2023/12/09 02:35:46;;;;;;;29.53;12.87;;;;;;;;;;5050756;28;20298;-77
2023/12/09 02:38:14;;;;;;;29.83;13.63;;;;;;;;;;5052617;28;20206;-77
2023/12/09 02:40:43;;;;;;;25.40;13.93;;;;;;;;;;5051870;28;20236;-77
2023/12/09 02:43:11;;;;;;;28.30;13.50;;;;;;;;;;5052399;28;20207;-77
2023/12/09 02:45:38;;;;;;;29.47;13.47;;;;;;;;;;5051443;28;20240;-77
2023/12/09 02:48:05;;;;;;;28.77;12.57;;;;;;;;;;5050452;28;20229;-77
2023/12/09 02:50:32;;;;;;;27.97;13.13;;;;;;;;;;5040731;28;20658;-77
2023/12/09 02:52:59;;;;;;;27.27;14.23;;;;;;;;;;5051529;28;20254;-77
2023/12/09 02:55:26;;;;;;;21.20;13.13;;;;;;;;;;5051694;28;20290;-77
2023/12/09 02:57:54;;;;;;;19.90;12.13;;;;;;;;;;5035599;28;20616;-76
2023/12/09 03:00:21;;;;;;;28.80;14.43;;;;;;;;;;5034102;28;20210;-77
2023/12/09 03:02:48;;;;;;;26.97;13.23;;;;;;;;;;5051653;28;20243;-77
2023/12/09 03:05:15;;;;;;;25.93;13.30;;;;;;;;;;5051564;28;20680;-77
2023/12/09 03:07:42;;;;;;;27.53;13.93;;;;;;;;;;5051406;28;20240;-77
2023/12/09 03:10:09;;;;;;;28.90;13.47;;;;;;;;;;5051032;28;20232;-77
2023/12/09 03:12:36;;;;;;;28.30;13.70;;;;;;;;;;5051414;28;20287;-77
2023/12/09 03:15:06;;;;;;;32.40;13.43;;;;;;;;;;5051209;28;20203;-77
2023/12/09 03:17:34;;;;;;;25.80;12.90;;;;;;;;;;5051497;28;20247;-76
2023/12/09 03:20:02;;;;;;;23.27;12.70;;;;;;;;;;5051257;28;20219;-76
2023/12/09 03:22:30;;;;;;;19.93;11.47;;;;;;;;;;5051188;28;20229;-76
2023/12/09 03:24:57;;;;;;;24.20;12.50;;;;;;;;;;5051445;28;20298;-77
2023/12/09 03:27:24;;;;;;;21.83;11.10;;;;;;;;;;5049467;28;20230;-76
2023/12/09 03:29:51;;;;;;;21.57;13.37;;;;;;;;;;5049570;28;20639;-76
2023/12/09 03:32:19;;;;;;;27.13;12.43;;;;;;;;;;5050779;28;20231;-76
2023/12/09 03:34:46;;;;;;;21.50;11.03;;;;;;;;;;5051455;28;20217;-76
2023/12/09 03:37:14;;;;;;;22.23;11.10;;;;;;;;;;5050499;28;20759;-77
2023/12/09 03:39:41;;;;;;;21.90;11.07;;;;;;;;;;5050983;28;20640;-77
2023/12/09 03:42:08;;;;;;;19.53;10.07;;;;;;;;;;5046341;28;20225;-77
2023/12/09 03:44:35;;;;;;;17.63;9.97;;;;;;;;;;5032807;28;20212;-77
2023/12/09 03:47:02;;;;;;;26.00;10.33;;;;;;;;;;5047233;28;20640;-76
2023/12/09 03:49:30;;;;;;;21.47;10.83;;;;;;;;;;5050047;28;20209;-77
2023/12/09 03:51:57;;;;;;;12.53;9.73;;;;;;;;;;5041720;28;20231;-77
2023/12/09 03:54:24;;;;;;;18.30;10.87;;;;;;;;;;5043665;28;20221;-77
2023/12/09 03:56:51;;;;;;;18.07;9.93;;;;;;;;;;5043742;28;20233;-76
2023/12/09 03:59:18;;;;;;;15.43;9.73;;;;;;;;;;5031388;28;20203;-77
2023/12/09 04:01:49;;;;;;;24.57;11.40;;;;;;;;;;5045690;28;20297;-77
2023/12/09 04:04:16;;;;;;;19.03;9.90;;;;;;;;;;5031303;28;20219;-77
2023/12/09 04:06:44;;;;;;;18.80;10.07;;;;;;;;;;5046366;28;20240;-76
2023/12/09 04:09:11;;;;;;;14.53;10.07;;;;;;;;;;5050902;28;20326;-77
2023/12/09 04:11:38;;;;;;;20.13;10.03;;;;;;;;;;5041938;28;20238;-76
2023/12/09 04:14:05;;;;;;;17.90;9.47;;;;;;;;;;5042075;28;20608;-77
2023/12/09 04:16:32;;;;;;;18.33;10.07;;;;;;;;;;5042624;28;20241;-76
2023/12/09 04:18:59;;;;;;;19.37;10.67;;;;;;;;;;5050912;28;20656;-76
2023/12/09 04:21:26;;;;;;;20.70;10.03;;;;;;;;;;5050382;28;20240;-77
2023/12/09 04:23:54;;;;;;;24.50;10.10;;;;;;;;;;5051333;28;20202;-76
2023/12/09 04:26:22;;;;;;;19.93;9.10;;;;;;;;;;5050077;28;20294;-77
2023/12/09 04:28:48;;;;;;;15.70;9.57;;;;;;;;;;5050459;28;20218;-77
2023/12/09 04:31:16;;;;;;;19.17;10.07;;;;;;;;;;5050231;28;20236;-77
2023/12/09 04:33:44;;;;;;;18.57;10.10;;;;;;;;;;5050766;28;20213;-76
2023/12/09 04:36:11;;;;;;;22.03;10.37;;;;;;;;;;5044145;28;20329;-76
2023/12/09 04:38:38;;;;;;;14.67;8.83;;;;;;;;;;5044736;28;20229;-75
2023/12/09 04:41:07;;;;;;;21.33;9.90;;;;;;;;;;5047402;28;20240;-76
2023/12/09 04:43:34;;;;;;;16.63;7.83;;;;;;;;;;5051014;28;20266;-76
2023/12/09 04:46:01;;;;;;;18.83;8.77;;;;;;;;;;5047465;28;20343;-76
2023/12/09 04:48:28;;;;;;;18.93;9.80;;;;;;;;;;5032092;28;20333;-75
2023/12/09 04:50:55;;;;;;;19.83;9.33;;;;;;;;;;5039096;28;20261;-75
2023/12/09 04:53:22;;;;;;;20.40;10.40;;;;;;;;;;5051890;28;20258;-77
2023/12/09 04:55:49;;;;;;;18.57;10.13;;;;;;;;;;5049972;28;20241;-77
2023/12/09 04:58:18;;;;;;;29.47;10.57;;;;;;;;;;5050741;28;20270;-77
2023/12/09 05:00:45;;;;;;;19.13;9.73;;;;;;;;;;5053102;28;20228;-76
2023/12/09 05:03:12;;;;;;;17.00;8.57;;;;;;;;;;5054425;28;20209;-77
2023/12/09 05:05:39;;;;;;;15.97;8.67;;;;;;;;;;5052216;28;21642;-77
2023/12/09 05:08:06;;;;;;;16.33;10.80;;;;;;;;;;5041915;28;20241;-77
2023/12/09 05:10:33;;;;;;;12.63;8.43;;;;;;;;;;5037943;28;20319;-77
2023/12/09 05:13:00;;;;;;;12.37;7.50;;;;;;;;;;5053694;28;20213;-77
2023/12/09 05:15:28;;;;;;;12.20;7.87;;;;;;;;;;5053541;28;20644;-77
2023/12/09 05:17:56;;;;;;;11.93;7.83;;;;;;;;;;5053271;28;20222;-76
2023/12/09 05:20:23;;;;;;;10.63;8.17;;;;;;;;;;5053015;28;20236;-76
2023/12/09 05:22:50;;;;;;;15.17;9.37;;;;;;;;;;5053308;28;20207;-76
2023/12/09 05:25:17;;;;;;;14.53;9.70;;;;;;;;;;5053535;28;20206;-76
2023/12/09 05:27:44;;;;;;;13.97;8.73;;;;;;;;;;5053488;28;20229;-76
2023/12/09 05:30:12;;;;;;;16.13;9.80;;;;;;;;;;5052786;28;20714;-76
2023/12/09 05:32:40;;;;;;;16.03;9.17;;;;;;;;;;5053968;28;20217;-77
2023/12/09 05:35:08;;;;;;;16.40;9.57;;;;;;;;;;5034973;28;20351;-77
2023/12/09 05:37:35;;;;;;;42.13;24.03;;;;;;;;;;5053539;28;20225;-77
2023/12/09 05:40:02;;;;;;;55.63;28.57;;;;;;;;;;5052926;28;20657;-77
2023/12/09 05:42:29;;;;;;;69.23;34.73;;;;;;;;;;5053561;28;20232;-77
2023/12/09 05:44:56;;;;;;;28.67;15.30;;;;;;;;;;5053210;28;20573;-77
2023/12/09 05:47:24;;;;;;;32.27;20.30;;;;;;;;;;5052723;28;20248;-77
2023/12/09 05:49:53;;;;;;;23.37;13.07;;;;;;;;;;5052689;28;20228;-76
2023/12/09 05:52:19;;;;;;;25.10;13.80;;;;;;;;;;5052520;28;20695;-77
2023/12/09 05:54:47;;;;;;;23.73;10.97;;;;;;;;;;5049600;28;20201;-76
2023/12/09 05:57:14;;;;;;;19.00;9.93;;;;;;;;;;5052846;28;20247;-76
2023/12/09 05:59:41;;;;;;;22.00;11.27;;;;;;;;;;5040836;28;20199;-77
2023/12/09 06:02:08;;;;;;;19.60;12.07;;;;;;;;;;5049747;28;20249;-77
2023/12/09 06:04:35;;;;;;;23.37;13.30;;;;;;;;;;5052899;28;20203;-77
2023/12/09 06:07:03;;;;;;;21.73;11.50;;;;;;;;;;5052135;28;20275;-77
2023/12/09 06:09:31;;;;;;;30.50;13.17;;;;;;;;;;5052807;28;20275;-77
2023/12/09 06:11:58;;;;;;;26.07;12.00;;;;;;;;;;5049233;28;20233;-77
2023/12/09 06:14:25;;;;;;;20.37;10.67;;;;;;;;;;5051613;28;20217;-77
2023/12/09 06:16:52;;;;;;;22.07;11.00;;;;;;;;;;5047654;28;20229;-77
2023/12/09 06:19:19;;;;;;;20.83;10.00;;;;;;;;;;5052595;28;20614;-77
2023/12/09 06:21:46;;;;;;;19.07;9.77;;;;;;;;;;5051792;28;20222;-77
2023/12/09 06:24:15;;;;;;;13.63;8.93;;;;;;;;;;5052678;28;20213;-77
2023/12/09 06:26:45;;;;;;;20.33;11.20;;;;;;;;;;5051832;28;20237;-77
2023/12/09 06:29:14;;;;;;;12.43;8.50;;;;;;;;;;5052470;28;20729;-77
2023/12/09 06:31:41;;;;;;;21.67;12.20;;;;;;;;;;5051626;28;20296;-75
2023/12/09 06:34:08;;;;;;;18.80;9.80;;;;;;;;;;5038710;28;20733;-75
2023/12/09 06:36:35;;;;;;;17.57;9.03;;;;;;;;;;5050602;28;20245;-75
2023/12/09 06:39:02;;;;;;;21.10;7.80;;;;;;;;;;5051862;28;20733;-74
2023/12/09 06:41:31;;;;;;;15.37;7.97;;;;;;;;;;5051931;28;20324;-75
2023/12/09 06:43:58;;;;;;;36.80;20.47;;;;;;;;;;5048777;28;20681;-74
2023/12/09 06:46:25;;;;;;;23.07;10.10;;;;;;;;;;5046227;28;20238;-74
2023/12/09 06:48:52;;;;;;;12.53;8.47;;;;;;;;;;5033192;28;20229;-75
2023/12/09 06:51:19;;;;;;;32.30;15.77;;;;;;;;;;5039120;28;20234;-75
2023/12/09 06:53:46;;;;;;;26.37;12.80;;;;;;;;;;5051736;28;20621;-74
2023/12/09 06:56:20;;;;;;;20.03;11.00;;;;;;;;;;5042361;28;20241;-75
2023/12/09 06:58:48;;;;;;;18.60;13.57;;;;;;;;;;5032160;28;20264;-75
2023/12/09 07:01:22;;;;;;;17.23;10.00;;;;;;;;;;5041339;28;20233;-74
2023/12/09 07:03:49;;;;;;;23.30;15.83;;;;;;;;;;5051826;28;20240;-75
2023/12/09 07:06:17;;;;;;;43.17;24.70;;;;;;;;;;5051202;28;20252;-74
2023/12/09 07:08:45;;;;;;;13.10;8.73;;;;;;;;;;5051933;28;20615;-75
2023/12/09 07:11:12;;;;;;;46.93;25.47;;;;;;;;;;5050950;28;20253;-75
2023/12/09 07:13:39;;;;;;;30.90;18.40;;;;;;;;;;5040072;28;20315;-75
2023/12/09 07:16:09;;;;;;;31.17;20.07;;;;;;;;;;5049402;28;20234;-74
2023/12/09 07:18:37;;;;;;;26.00;15.37;;;;;;;;;;5037084;28;20194;-74
2023/12/09 07:21:04;;;;;;;41.13;22.10;;;;;;;;;;5043635;28;20596;-73
2023/12/09 07:23:31;;;;;;;15.20;8.60;;;;;;;;;;5034991;28;20256;-74
2023/12/09 07:25:59;;;;;;;19.10;8.10;;;;;;;;;;5042417;28;20286;-74
2023/12/09 07:28:26;;;;;;;15.87;10.73;;;;;;;;;;5051225;28;20228;-74
2023/12/09 07:30:53;;;;;;;17.50;10.67;;;;;;;;;;5050417;28;20284;-74
2023/12/09 07:33:22;;;;;;;21.87;10.37;;;;;;;;;;5031810;28;20288;-74
2023/12/09 07:35:49;;;;;;;32.30;18.07;;;;;;;;;;5037292;28;20237;-74
2023/12/09 07:38:16;;;;;;;20.87;13.33;;;;;;;;;;5051142;28;20270;-75
2023/12/09 07:40:43;;;;;;;20.10;9.60;;;;;;;;;;5047532;28;20641;-74
2023/12/09 07:43:10;;;;;;;10.63;6.70;;;;;;;;;;5046795;28;20220;-75
2023/12/09 07:45:37;;;;;;;11.40;5.27;;;;;;;;;;5046247;28;20291;-75
2023/12/09 07:48:04;;;;;;;12.23;6.00;;;;;;;;;;5040419;28;20222;-75
2023/12/09 07:50:34;;;;;;;6.87;5.23;;;;;;;;;;5031939;28;20638;-74
2023/12/09 07:53:02;;;;;;;12.23;6.53;;;;;;;;;;5042846;28;20673;-74
2023/12/09 07:55:29;;;;;;;8.03;5.67;;;;;;;;;;5040262;28;20230;-76
2023/12/09 07:57:56;;;;;;;6.17;5.20;;;;;;;;;;5050805;28;20708;-74
2023/12/09 08:00:26;;;;;;;7.63;6.20;;;;;;;;;;5050617;28;20261;-75
2023/12/09 08:02:54;;;;;;;11.97;7.70;;;;;;;;;;5041137;28;20199;-74
2023/12/09 08:05:21;;;;;;;15.40;6.97;;;;;;;;;;5038939;28;20202;-74
2023/12/09 08:07:50;;;;;;;11.63;6.80;;;;;;;;;;5050774;28;20316;-74
2023/12/09 08:10:17;;;;;;;19.63;6.77;;;;;;;;;;5050300;28;20244;-74
2023/12/09 08:12:44;;;;;;;15.17;8.60;;;;;;;;;;5050780;28;20217;-74
2023/12/09 08:15:12;;;;;;;24.43;10.30;;;;;;;;;;5050318;28;20209;-74
2023/12/09 08:17:39;;;;;;;18.83;6.83;;;;;;;;;;5050648;28;20233;-74
2023/12/09 08:20:08;;;;;;;16.53;6.43;;;;;;;;;;5048740;28;20224;-74
2023/12/09 08:22:36;;;;;;;11.33;6.67;;;;;;;;;;5050864;28;20746;-74
2023/12/09 08:25:04;;;;;;;14.33;7.47;;;;;;;;;;5050070;28;20209;-75
2023/12/09 08:27:31;;;;;;;12.20;6.03;;;;;;;;;;5050862;28;20317;-74
2023/12/09 08:29:58;;;;;;;12.87;4.83;;;;;;;;;;5050380;28;20646;-74
2023/12/09 08:32:25;;;;;;;6.77;4.97;;;;;;;;;;5050501;28;20291;-74
2023/12/09 08:34:52;;;;;;;11.67;4.73;;;;;;;;;;5053305;28;20673;-74
2023/12/09 08:37:25;;;;;;;19.17;5.97;;;;;;;;;;5054034;28;20234;-74
2023/12/09 08:39:54;;;;;;;6.90;5.33;;;;;;;;;;5054532;28;20707;-74
2023/12/09 08:42:22;;;;;;;7.83;5.27;;;;;;;;;;5054157;28;20245;-74
2023/12/09 08:44:49;;;;;;;15.40;6.23;;;;;;;;;;5054437;28;20668;-74
2023/12/09 08:47:16;;;;;;;12.57;5.93;;;;;;;;;;5054036;28;20249;-74
2023/12/09 08:49:44;;;;;;;12.57;6.70;;;;;;;;;;5054215;28;20892;-75
2023/12/09 08:52:11;;;;;;;15.13;5.80;;;;;;;;;;5054017;28;20233;-74
2023/12/09 08:54:38;;;;;;;11.37;4.90;;;;;;;;;;5054353;28;20237;-74
2023/12/09 08:57:05;;;;;;;6.57;4.63;;;;;;;;;;5053746;28;20229;-74
2023/12/09 08:59:33;;;;;;;12.97;6.30;;;;;;;;;;5054258;28;20198;-74
2023/12/09 09:02:00;;;;;;;12.53;5.60;;;;;;;;;;5053504;28;20583;-74
2023/12/09 09:04:27;;;;;;;16.20;6.17;;;;;;;;;;5045461;28;20199;-74
2023/12/09 09:06:54;;;;;;;9.17;5.10;;;;;;;;;;5042025;28;20280;-73
2023/12/09 09:09:22;;;;;;;9.03;5.60;;;;;;;;;;5045428;28;20226;-74
2023/12/09 09:11:49;;;;;;;9.30;5.57;;;;;;;;;;5053681;28;20324;-74
2023/12/09 09:14:16;;;;;;;10.77;5.63;;;;;;;;;;5054102;28;20263;-74
2023/12/09 09:16:44;;;;;;;10.23;5.73;;;;;;;;;;5053522;28;20320;-75
2023/12/09 09:19:11;;;;;;;11.53;6.43;;;;;;;;;;5049347;28;20207;-74
2023/12/09 09:21:40;;;;;;;11.47;5.20;;;;;;;;;;5045597;28;20231;-74
2023/12/09 09:24:07;;;;;;;10.40;5.53;;;;;;;;;;5034658;28;20240;-74
2023/12/09 09:26:34;;;;;;;10.00;6.33;;;;;;;;;;5045895;28;20789;-74
2023/12/09 09:29:01;;;;;;;11.43;6.70;;;;;;;;;;5054419;28;20225;-74
2023/12/09 09:31:28;;;;;;;10.90;6.30;;;;;;;;;;5053700;28;20617;-74
2023/12/09 09:33:57;;;;;;;16.97;6.47;;;;;;;;;;5054211;28;20575;-74
2023/12/09 09:36:24;;;;;;;16.20;7.87;;;;;;;;;;5052903;28;20295;-75
2023/12/09 09:38:51;;;;;;;14.60;7.43;;;;;;;;;;5053624;28;20616;-76
2023/12/09 09:41:22;;;;;;;16.93;7.53;;;;;;;;;;5048069;28;20230;-75
2023/12/09 09:43:54;;;;;;;12.40;6.67;;;;;;;;;;5050767;28;20214;-74
2023/12/09 09:46:22;;;;;;;24.30;7.90;;;;;;;;;;5050704;28;20229;-74
2023/12/09 09:48:51;;;;;;;8.63;4.93;;;;;;;;;;5051238;28;20236;-74
2023/12/09 09:51:22;;;;;;;8.63;5.50;;;;;;;;;;5051007;28;20634;-74
2023/12/09 09:53:53;;;;;;;11.87;5.97;;;;;;;;;;5050940;28;20305;-74
2023/12/09 09:56:21;;;;;;;9.87;5.70;;;;;;;;;;5050738;28;20284;-74
2023/12/09 09:58:48;;;;;;;11.17;5.90;;;;;;;;;;5051324;28;20213;-74
2023/12/09 10:01:16;;;;;;;11.60;5.43;;;;;;;;;;5050579;28;20234;-74
2023/12/09 10:03:43;;;;;;;10.97;5.80;;;;;;;;;;5051201;28;20256;-74
2023/12/09 10:06:11;;;;;;;17.57;6.37;;;;;;;;;;5049928;28;20621;-74
2023/12/09 10:08:39;;;;;;;7.90;6.43;;;;;;;;;;5051094;28;20281;-74
2023/12/09 10:11:08;;;;;;;12.37;6.77;;;;;;;;;;5050100;28;20258;-75
2023/12/09 10:13:35;;;;;;;11.00;6.00;;;;;;;;;;5051419;28;20244;-75
2023/12/09 10:16:03;;;;;;;14.20;7.17;;;;;;;;;;5049715;28;20241;-74
2023/12/09 10:18:31;;;;;;;10.83;6.30;;;;;;;;;;5050752;28;20229;-74
2023/12/09 10:20:58;;;;;;;9.10;5.20;;;;;;;;;;5050138;28;20287;-74
2023/12/09 10:23:25;;;;;;;10.70;4.97;;;;;;;;;;5051068;28;20251;-74
2023/12/09 10:25:53;;;;;;;11.43;5.37;;;;;;;;;;5049947;28;20712;-75
2023/12/09 10:28:21;;;;;;;10.10;5.53;;;;;;;;;;5049705;28;20209;-75
2023/12/09 10:30:48;;;;;;;10.03;5.77;;;;;;;;;;5049732;28;20238;-74
2023/12/09 10:33:15;;;;;;;11.70;5.47;;;;;;;;;;5051404;28;20206;-74
2023/12/09 10:35:42;;;;;;;11.67;4.87;;;;;;;;;;5049963;28;20795;-75
2023/12/09 10:38:10;;;;;;;10.93;3.93;;;;;;;;;;5050123;28;20226;-74
2023/12/09 10:40:38;;;;;;;7.27;4.10;;;;;;;;;;5050356;28;20237;-74
2023/12/09 10:43:06;;;;;;;7.17;3.07;;;;;;;;;;5050480;28;20676;-73
2023/12/09 10:45:33;;;;;;;5.20;3.23;;;;;;;;;;5049889;28;20234;-74
2023/12/09 10:48:00;;;;;;;3.73;2.80;;;;;;;;;;5050110;28;20229;-74
2023/12/09 10:50:27;;;;;;;4.13;3.33;;;;;;;;;;5049770;28;20241;-74
2023/12/09 10:52:54;;;;;;;4.53;2.90;;;;;;;;;;5050679;28;20206;-75
2023/12/09 10:55:21;;;;;;;6.37;3.30;;;;;;;;;;5049425;28;20600;-75
2023/12/09 10:57:48;;;;;;;4.70;3.50;;;;;;;;;;5049433;28;20229;-77
2023/12/09 11:00:17;;;;;;;5.13;3.20;;;;;;;;;;5049673;28;20213;-75
2023/12/09 11:02:46;;;;;;;3.93;3.00;;;;;;;;;;5050651;28;20212;-76
2023/12/09 11:05:14;;;;;;;3.37;2.83;;;;;;;;;;5049512;28;20202;-76
2023/12/09 11:07:42;;;;;;;3.23;2.90;;;;;;;;;;5049656;28;20223;-75
2023/12/09 11:10:10;;;;;;;7.87;3.67;;;;;;;;;;5049478;28;20221;-76
2023/12/09 11:12:37;;;;;;;3.37;3.07;;;;;;;;;;5050410;28;20279;-76
2023/12/09 11:15:08;;;;;;;3.20;2.30;;;;;;;;;;5049490;28;20289;-76
2023/12/09 11:17:37;;;;;;;8.60;5.63;;;;;;;;;;5049681;28;20308;-75
2023/12/09 11:20:09;;;;;;;3.73;2.80;;;;;;;;;;5049233;28;20248;-75
2023/12/09 11:22:37;;;;;;;6.40;3.10;;;;;;;;;;5050225;28;20400;-75
2023/12/09 11:25:05;;;;;;;2.67;2.37;;;;;;;;;;5049393;28;20210;-76
2023/12/09 11:27:34;;;;;;;3.20;2.07;;;;;;;;;;5049242;28;20587;-75
2023/12/09 11:30:01;;;;;;;4.27;3.37;;;;;;;;;;5049866;28;20251;-75
2023/12/09 11:32:30;;;;;;;6.53;3.50;;;;;;;;;;5049443;28;20245;-75
2023/12/09 11:34:58;;;;;;;3.43;3.10;;;;;;;;;;5047862;28;20296;-75
2023/12/09 11:37:26;;;;;;;3.00;2.80;;;;;;;;;;5048960;28;20628;-75
2023/12/09 11:39:54;;;;;;;3.20;2.90;;;;;;;;;;5049665;28;20232;-75
2023/12/09 11:42:22;;;;;;;5.83;3.27;;;;;;;;;;5049306;28;20761;-75
2023/12/09 11:44:49;;;;;;;5.80;3.40;;;;;;;;;;5049693;28;20293;-75
2023/12/09 11:47:18;;;;;;;5.23;3.53;;;;;;;;;;5049202;28;20257;-76
2023/12/09 11:49:46;;;;;;;5.50;2.43;;;;;;;;;;5048060;28;20226;-76
2023/12/09 11:52:14;;;;;;;7.33;3.50;;;;;;;;;;5042195;28;20264;-76
2023/12/09 11:54:41;;;;;;;8.43;2.87;;;;;;;;;;5043201;28;20244;-76
2023/12/09 11:57:08;;;;;;;6.67;2.63;;;;;;;;;;5049044;28;20237;-76
2023/12/09 11:59:37;;;;;;;5.67;2.93;;;;;;;;;;5049327;28;20209;-76
2023/12/09 12:02:04;;;;;;;7.30;3.03;;;;;;;;;;5047968;28;20317;-76
2023/12/09 12:04:33;;;;;;;3.27;2.37;;;;;;;;;;5049368;28;20209;-75
2023/12/09 12:07:00;;;;;;;5.70;3.40;;;;;;;;;;5048558;28;20238;-76
2023/12/09 12:09:28;;;;;;;5.20;2.50;;;;;;;;;;5051055;28;20210;-75
2023/12/09 12:11:56;;;;;;;5.43;2.50;;;;;;;;;;5053403;28;20222;-76
2023/12/09 12:14:23;;;;;;;5.27;2.67;;;;;;;;;;5053291;28;20267;-76
2023/12/09 12:16:50;;;;;;;2.23;2.13;;;;;;;;;;5052482;28;20648;-76
2023/12/09 12:19:18;;;;;;;3.20;2.90;;;;;;;;;;5052366;28;20271;-76
2023/12/09 12:21:45;;;;;;;3.67;2.77;;;;;;;;;;5052370;28;20316;-76
2023/12/09 12:24:12;;;;;;;2.30;2.10;;;;;;;;;;5050440;28;20807;-76
2023/12/09 12:26:40;;;;;;;2.67;2.40;;;;;;;;;;5052334;28;20230;-75
2023/12/09 12:29:09;;;;;;;5.90;2.67;;;;;;;;;;5047585;28;20244;-76
2023/12/09 12:31:36;;;;;;;4.17;2.57;;;;;;;;;;5048055;28;20507;-75
2023/12/09 12:34:17;;;;;;;2.43;2.13;;;;;;;;;;5054370;28;20283;-76
2023/12/09 12:36:44;;;;;;;3.57;2.40;;;;;;;;;;5051791;28;20283;-76
2023/12/09 12:39:11;;;;;;;2.20;1.90;;;;;;;;;;5052898;28;20639;-75
2023/12/09 12:41:40;;;;;;;3.30;2.60;;;;;;;;;;5052624;28;20234;-75
2023/12/09 12:44:07;;;;;;;2.27;2.07;;;;;;;;;;5052949;28;20263;-76
2023/12/09 12:46:34;;;;;;;4.20;2.60;;;;;;;;;;5051764;28;20234;-76
2023/12/09 12:49:01;;;;;;;1.77;1.67;;;;;;;;;;5052814;28;20202;-76
2023/12/09 12:51:28;;;;;;;3.93;2.20;;;;;;;;;;5052128;28;20701;-76
2023/12/09 12:53:55;;;;;;;2.27;2.07;;;;;;;;;;5053097;28;20228;-75
2023/12/09 12:56:23;;;;;;;5.83;2.23;;;;;;;;;;5051532;28;20269;-75
2023/12/09 12:58:52;;;;;;;2.90;2.50;;;;;;;;;;5052397;28;20293;-75
2023/12/09 13:01:20;;;;;;;2.67;2.10;;;;;;;;;;5052111;28;20237;-75
2023/12/09 13:03:48;;;;;;;3.20;2.40;;;;;;;;;;5052798;28;20210;-75
2023/12/09 13:06:15;;;;;;;3.63;2.37;;;;;;;;;;5051678;28;20283;-76
2023/12/09 13:08:42;;;;;;;4.40;2.57;;;;;;;;;;5052206;28;20260;-76
2023/12/09 13:11:10;;;;;;;4.13;2.70;;;;;;;;;;5051900;28;20268;-75
2023/12/09 13:13:37;;;;;;;3.57;2.60;;;;;;;;;;5052407;28;20305;-75
2023/12/09 13:16:06;;;;;;;6.63;2.47;;;;;;;;;;5051215;28;20295;-75
2023/12/09 13:18:33;;;;;;;2.70;2.13;;;;;;;;;;5051719;28;20268;-75
2023/12/09 13:21:00;;;;;;;3.13;2.10;;;;;;;;;;5050915;28;21002;-74
2023/12/09 13:23:27;;;;;;;6.13;2.60;;;;;;;;;;5050450;28;20291;-75
2023/12/09 13:25:54;;;;;;;2.57;2.00;;;;;;;;;;5048910;28;20257;-75
2023/12/09 13:28:21;;;;;;;1.50;1.50;;;;;;;;;;5048092;28;20256;-75
2023/12/09 13:30:48;;;;;;;2.23;1.70;;;;;;;;;;5049607;28;20279;-75
2023/12/09 13:33:16;;;;;;;3.30;2.20;;;;;;;;;;5050034;28;20956;-75
2023/12/09 13:35:44;;;;;;;2.00;1.90;;;;;;;;;;5050030;28;20226;-75
2023/12/09 13:38:11;;;;;;;2.20;1.90;;;;;;;;;;5049834;28;20612;-74
2023/12/09 13:40:39;;;;;;;1.40;1.40;;;;;;;;;;5049684;28;20238;-75
2023/12/09 13:43:06;;;;;;;10.23;2.43;;;;;;;;;;5050298;28;20206;-75
2023/12/09 13:45:35;;;;;;;2.93;1.70;;;;;;;;;;5050401;28;20639;-75
2023/12/09 13:48:03;;;;;;;4.47;1.57;;;;;;;;;;5051206;28;20262;-75
2023/12/09 13:50:32;;;;;;;2.90;1.83;;;;;;;;;;5050293;28;20241;-75
2023/12/09 13:52:59;;;;;;;2.63;1.83;;;;;;;;;;5051709;28;20206;-75
2023/12/09 13:55:27;;;;;;;1.77;1.43;;;;;;;;;;5050591;28;20708;-75
2023/12/09 13:57:55;;;;;;;4.67;2.20;;;;;;;;;;5050727;28;20253;-75
2023/12/09 14:00:22;;;;;;;3.23;2.00;;;;;;;;;;5050442;28;20217;-75
2023/12/09 14:02:49;;;;;;;1.30;1.30;;;;;;;;;;5051437;28;20210;-73
2023/12/09 14:05:16;;;;;;;2.23;1.97;;;;;;;;;;5050632;28;20598;-75
2023/12/09 14:07:45;;;;;;;3.53;2.57;;;;;;;;;;5050547;28;20283;-75
2023/12/09 14:10:13;;;;;;;1.43;1.40;;;;;;;;;;5050361;28;20202;-75
2023/12/09 14:12:43;;;;;;;9.67;6.13;;;;;;;;;;5050893;28;20241;-75
2023/12/09 14:15:11;;;;;;;1.97;1.87;;;;;;;;;;5050976;28;20205;-75
2023/12/09 14:17:41;;;;;;;4.70;3.20;;;;;;;;;;5042422;28;20650;-75
2023/12/09 14:20:10;;;;;;;2.33;2.10;;;;;;;;;;5050821;28;20203;-76
2023/12/09 14:22:37;;;;;;;5.33;4.17;;;;;;;;;;5051301;28;20210;-75
2023/12/09 14:25:08;;;;;;;5.77;3.37;;;;;;;;;;5052264;28;20202;-76
2023/12/09 14:27:35;;;;;;;3.97;2.47;;;;;;;;;;5049928;28;20225;-76
2023/12/09 14:30:02;;;;;;;10.47;5.37;;;;;;;;;;5050945;28;20607;-75